Time;durP1;ratioP1;P1;durP2;ratioP2;P2;SDS_P1;SDS_P2;PMS_P1;PMS_P2;Temp;Humidity;BMP_temperature;BMP_pressure;BME280_temperature;BME280_humidity;BME280_pressure;Samples;Min_cycle;Max_cycle;Signal;HPM_P1;HPM_P2
2023/10/18 00:02:16;;;;;;;15.88;9.50;;;6.70;77.10;;;;;;6247069;22;20114;-82
2023/10/18 00:04:44;;;;;;;16.48;10.20;;;6.70;77.10;;;;;;6247574;22;20020;-84
2023/10/18 00:07:12;;;;;;;15.35;9.35;;;6.70;77.20;;;;;;6274205;22;20468;-83
2023/10/18 00:09:50;;;;;;;13.70;8.60;;;6.70;77.20;;;;;;6275554;22;20133;-83
2023/10/18 00:12:18;;;;;;;17.30;10.40;;;6.60;77.20;;;;;;6246829;22;20380;-83
2023/10/18 00:14:51;;;;;;;14.15;9.23;;;6.60;77.30;;;;;;6274689;22;20043;-83
2023/10/18 00:17:16;;;;;;;13.65;9.00;;;6.60;77.50;;;;;;6172949;22;20021;-83
2023/10/18 00:19:43;;;;;;;14.68;9.20;;;6.60;77.50;;;;;;6161597;23;20020;-82
2023/10/18 00:22:09;;;;;;;13.10;9.05;;;6.60;77.60;;;;;;6186687;23;20503;-82
2023/10/18 00:24:36;;;;;;;16.75;9.45;;;6.60;77.60;;;;;;6186983;23;20017;-82
2023/10/18 00:27:03;;;;;;;17.92;10.85;;;6.60;77.70;;;;;;6186872;23;20028;-82
2023/10/18 00:29:29;;;;;;;14.55;9.45;;;6.60;77.70;;;;;;6161796;23;20355;-82
2023/10/18 00:31:55;;;;;;;16.80;10.23;;;6.60;77.70;;;;;;6186480;23;20019;-84
2023/10/18 00:34:21;;;;;;;15.05;10.38;;;6.60;77.80;;;;;;6186529;23;20403;-82
2023/10/18 00:36:47;;;;;;;19.83;11.60;;;6.60;77.90;;;;;;6186713;23;20023;-82
2023/10/18 00:39:27;;;;;;;19.42;12.45;;;6.60;77.90;;;;;;6161941;23;20049;-83
2023/10/18 00:41:54;;;;;;;18.52;12.35;;;6.60;77.90;;;;;;6162113;23;20059;-82
2023/10/18 00:44:23;;;;;;;19.08;12.18;;;6.50;77.80;;;;;;6186678;23;20023;-82
2023/10/18 00:46:53;;;;;;;19.30;12.32;;;6.50;77.90;;;;;;6185962;23;20318;-82
2023/10/18 00:49:20;;;;;;;20.33;12.63;;;6.50;77.90;;;;;;6162169;23;20020;-82
2023/10/18 00:51:47;;;;;;;21.52;13.60;;;6.50;77.90;;;;;;6186801;23;20028;-83
2023/10/18 00:54:14;;;;;;;19.40;13.63;;;6.50;78.00;;;;;;6186789;23;20012;-82
2023/10/18 00:56:42;;;;;;;20.45;13.52;;;6.50;78.10;;;;;;6215171;23;20015;-82
2023/10/18 00:59:14;;;;;;;20.50;13.90;;;6.40;78.30;;;;;;6215539;23;20020;-82
2023/10/18 01:01:43;;;;;;;18.45;12.50;;;6.40;78.30;;;;;;6214872;23;20012;-82
2023/10/18 01:04:12;;;;;;;22.13;14.60;;;6.40;78.40;;;;;;6214876;23;20383;-82
2023/10/18 01:06:43;;;;;;;21.63;14.75;;;6.40;78.50;;;;;;6188327;23;20488;-82
2023/10/18 01:09:15;;;;;;;23.90;15.38;;;6.40;78.60;;;;;;6215507;23;20044;-82
2023/10/18 01:11:41;;;;;;;23.70;15.00;;;6.40;78.60;;;;;;6188391;23;20012;-83
2023/10/18 01:14:07;;;;;;;24.75;15.30;;;6.40;78.70;;;;;;6188291;23;20458;-82
2023/10/18 01:16:36;;;;;;;24.33;15.98;;;6.40;78.80;;;;;;6162569;23;20012;-82
2023/10/18 01:19:08;;;;;;;25.67;15.38;;;6.40;78.80;;;;;;6213523;23;20012;-82
2023/10/18 01:21:34;;;;;;;29.13;16.77;;;6.40;79.10;;;;;;6213262;23;20450;-82
2023/10/18 01:24:00;;;;;;;27.42;17.13;;;6.30;79.00;;;;;;6213113;23;20020;-82
2023/10/18 01:26:28;;;;;;;25.85;16.73;;;6.30;79.20;;;;;;6213138;23;20439;-82
2023/10/18 01:28:55;;;;;;;27.38;16.52;;;6.30;79.30;;;;;;6212853;23;20017;-82
2023/10/18 01:31:22;;;;;;;25.70;16.10;;;6.20;79.40;;;;;;6214925;23;20009;-82
2023/10/18 01:33:48;;;;;;;24.98;16.23;;;6.20;79.50;;;;;;6213310;23;20021;-82
2023/10/18 01:36:15;;;;;;;25.48;17.27;;;6.20;79.60;;;;;;6214772;23;20087;-82
2023/10/18 01:38:44;;;;;;;28.65;17.13;;;6.20;79.80;;;;;;6214941;23;20450;-82
2023/10/18 01:41:13;;;;;;;27.05;16.77;;;6.20;79.80;;;;;;6213011;23;20094;-82
2023/10/18 01:43:41;;;;;;;26.60;16.95;;;6.20;79.90;;;;;;6212539;23;20020;-82
2023/10/18 01:46:08;;;;;;;28.67;17.27;;;6.30;80.00;;;;;;6215055;23;20044;-82
2023/10/18 01:48:37;;;;;;;30.17;17.55;;;6.20;80.00;;;;;;6214803;23;20020;-82
2023/10/18 01:51:05;;;;;;;30.73;18.30;;;6.20;80.00;;;;;;6213218;23;20012;-82
2023/10/18 01:53:32;;;;;;;30.00;18.63;;;6.20;80.00;;;;;;6214727;23;20075;-83
2023/10/18 01:56:00;;;;;;;28.83;18.38;;;6.20;80.10;;;;;;6212888;23;20015;-83
2023/10/18 01:58:27;;;;;;;29.90;18.75;;;6.20;80.20;;;;;;6212501;23;20062;-82
2023/10/18 02:00:54;;;;;;;33.03;18.88;;;6.20;80.20;;;;;;6212951;23;20013;-83
2023/10/18 02:03:20;;;;;;;31.25;19.58;;;6.20;80.40;;;;;;6212930;23;20421;-82
2023/10/18 02:05:47;;;;;;;30.48;18.98;;;6.20;80.40;;;;;;6212651;23;20044;-83
2023/10/18 02:08:13;;;;;;;36.05;20.17;;;6.20;80.50;;;;;;6212706;23;20021;-82
2023/10/18 02:10:41;;;;;;;30.63;18.73;;;6.20;80.70;;;;;;6212943;23;20318;-83
2023/10/18 02:13:10;;;;;;;32.22;19.33;;;6.20;80.80;;;;;;6187168;23;20028;-82
2023/10/18 02:15:39;;;;;;;34.83;20.17;;;6.20;80.90;;;;;;6214745;23;20019;-82
2023/10/18 02:18:05;;;;;;;32.95;20.58;;;6.20;80.90;;;;;;6212733;23;20016;-82
2023/10/18 02:20:31;;;;;;;32.35;20.52;;;6.20;81.10;;;;;;6214567;23;20004;-83
2023/10/18 02:22:59;;;;;;;30.58;19.95;;;6.10;81.10;;;;;;6213073;23;20058;-82
2023/10/18 02:28:08;;;;;;;33.28;20.48;;;6.10;81.20;;;;;;6212206;23;20055;-82
2023/10/18 02:30:38;;;;;;;34.35;20.63;;;6.10;81.10;;;;;;6214251;23;20016;-82
2023/10/18 02:33:05;;;;;;;34.90;22.75;;;6.10;81.30;;;;;;6214669;23;20012;-83
2023/10/18 02:35:34;;;;;;;30.13;20.30;;;6.10;81.20;;;;;;6214115;23;20051;-82
2023/10/18 02:38:08;;;;;;;35.72;21.25;;;6.10;81.40;;;;;;6214323;23;20087;-82
2023/10/18 02:40:38;;;;;;;27.33;17.83;;;6.10;81.40;;;;;;6212703;23;20013;-82
2023/10/18 02:43:08;;;;;;;33.65;19.90;;;6.10;81.40;;;;;;6214073;23;20314;-82
2023/10/18 02:45:34;;;;;;;32.47;20.88;;;6.10;81.50;;;;;;6212575;23;20016;-82
2023/10/18 02:48:00;;;;;;;35.20;21.67;;;6.10;81.50;;;;;;6212445;23;20013;-82
2023/10/18 02:50:26;;;;;;;34.22;21.15;;;6.20;81.50;;;;;;6214061;23;20023;-81
2023/10/18 02:52:53;;;;;;;34.10;21.60;;;6.10;81.50;;;;;;6212676;23;20431;-82
2023/10/18 02:55:19;;;;;;;31.25;20.50;;;6.20;81.60;;;;;;6213987;23;20143;-82
2023/10/18 02:57:48;;;;;;;31.40;19.40;;;6.10;81.50;;;;;;6213783;23;20048;-82
2023/10/18 03:00:17;;;;;;;30.92;21.10;;;6.20;81.50;;;;;;6214469;23;20321;-82
2023/10/18 03:02:42;;;;;;;34.78;21.17;;;6.20;81.50;;;;;;6214284;23;20105;-83
2023/10/18 03:05:10;;;;;;;32.78;21.17;;;6.20;81.30;;;;;;6186978;23;20480;-82
2023/10/18 03:07:35;;;;;;;33.65;21.90;;;6.20;81.30;;;;;;6212341;23;20016;-82
2023/10/18 03:10:11;;;;;;;35.45;22.65;;;6.20;81.30;;;;;;6214193;23;20509;-82
2023/10/18 03:12:44;;;;;;;37.42;22.63;;;6.20;81.30;;;;;;6212279;23;20096;-82
2023/10/18 03:15:14;;;;;;;30.98;21.85;;;6.10;81.30;;;;;;6213766;23;20092;-82
2023/10/18 03:17:40;;;;;;;34.20;22.30;;;6.10;81.30;;;;;;6213670;23;20009;-82
2023/10/18 03:20:22;;;;;;;31.70;21.83;;;6.10;81.30;;;;;;6187116;23;20023;-82
2023/10/18 03:22:51;;;;;;;33.00;21.05;;;6.10;81.80;;;;;;6214192;23;20107;-82
2023/10/18 03:25:17;;;;;;;33.90;21.35;;;6.10;81.40;;;;;;6186420;23;20048;-82
2023/10/18 03:27:50;;;;;;;36.72;23.02;;;6.10;81.40;;;;;;6187120;23;20013;-82
2023/10/18 03:30:19;;;;;;;35.13;21.42;;;6.10;81.50;;;;;;6187169;23;20017;-82
2023/10/18 03:32:53;;;;;;;35.38;23.10;;;6.10;81.50;;;;;;6213953;23;20311;-82
2023/10/18 03:35:22;;;;;;;;;;;6.10;81.50;;;;;;6214558;23;20333;-82
2023/10/18 03:37:48;;;;;;;30.67;20.63;;;6.10;81.30;;;;;;6213352;23;20325;-82
2023/10/18 03:40:27;;;;;;;37.25;23.58;;;6.10;81.30;;;;;;6186635;23;20334;-83
2023/10/18 03:42:54;;;;;;;34.70;22.25;;;6.00;81.40;;;;;;6213912;23;20337;-82
2023/10/18 03:45:21;;;;;;;37.35;23.35;;;6.10;81.50;;;;;;6213357;23;20429;-82
2023/10/18 03:47:59;;;;;;;34.30;21.95;;;6.10;81.60;;;;;;6187162;23;20024;-83
2023/10/18 03:50:41;;;;;;;35.22;22.50;;;6.10;81.70;;;;;;6187086;23;20469;-82
2023/10/18 03:53:13;;;;;;;34.63;22.88;;;6.10;81.80;;;;;;6213529;23;20008;-82
2023/10/18 03:55:42;;;;;;;35.05;22.13;;;6.00;81.70;;;;;;6213250;23;20005;-83
2023/10/18 03:58:08;;;;;;;37.25;23.27;;;6.00;81.70;;;;;;6213908;23;20048;-82
2023/10/18 04:00:54;;;;;;;33.42;22.50;;;6.00;81.70;;;;;;6213366;23;20016;-82
2023/10/18 04:03:21;;;;;;;35.25;22.27;;;6.10;81.80;;;;;;6213082;23;20395;-82
2023/10/18 04:05:49;;;;;;;34.67;22.02;;;6.00;81.80;;;;;;6186964;23;20044;-82
2023/10/18 04:08:17;;;;;;;35.92;23.83;;;6.00;81.80;;;;;;6213249;23;20012;-82
2023/10/18 04:10:44;;;;;;;32.78;21.30;;;6.00;81.80;;;;;;6186979;23;20024;-82
2023/10/18 04:13:13;;;;;;;33.95;22.02;;;6.00;81.90;;;;;;6213791;23;20017;-83
2023/10/18 04:15:46;;;;;;;33.85;22.45;;;6.00;82.00;;;;;;6186944;23;20016;-82
2023/10/18 04:18:25;;;;;;;32.95;22.10;;;6.00;82.10;;;;;;6213257;23;20012;-82
2023/10/18 04:20:52;;;;;;;36.30;23.02;;;6.00;82.00;;;;;;6213912;23;20055;-82
2023/10/18 04:23:27;;;;;;;33.67;21.75;;;6.00;82.10;;;;;;6186530;23;20013;-83
2023/10/18 04:26:03;;;;;;;37.55;22.73;;;6.00;82.10;;;;;;6213563;23;20008;-83
2023/10/18 04:28:31;;;;;;;35.25;21.60;;;6.00;82.20;;;;;;6213684;23;20013;-83
2023/10/18 04:31:00;;;;;;;34.47;23.15;;;6.00;82.30;;;;;;6215211;23;20032;-83
2023/10/18 04:36:13;;;;;;;35.20;22.27;;;6.00;82.30;;;;;;6215308;23;20066;-83
2023/10/18 04:38:45;;;;;;;34.78;22.92;;;6.00;82.30;;;;;;6188198;23;20011;-82
2023/10/18 04:41:23;;;;;;;31.90;21.65;;;6.00;82.20;;;;;;6215691;23;20017;-82
2023/10/18 04:44:15;;;;;;;39.15;22.50;;;6.00;82.20;;;;;;6215354;23;20333;-83
2023/10/18 04:46:47;;;;;;;32.25;21.00;;;6.00;82.30;;;;;;6189227;23;20023;-83
2023/10/18 04:49:18;;;;;;;32.83;21.40;;;5.90;82.10;;;;;;6188791;23;20038;-83
2023/10/18 04:51:44;;;;;;;33.58;22.13;;;6.00;82.20;;;;;;6188254;23;20016;-82
2023/10/18 04:54:15;;;;;;;33.58;22.30;;;5.90;82.20;;;;;;6188513;23;20139;-83
2023/10/18 04:56:44;;;;;;;38.50;22.73;;;5.90;82.20;;;;;;6215434;23;20009;-83
2023/10/18 04:59:19;;;;;;;32.38;21.90;;;5.90;82.20;;;;;;6214977;23;20483;-82
2023/10/18 05:04:24;;;;;;;32.85;21.88;;;6.00;82.30;;;;;;6188602;23;20051;-83
2023/10/18 05:06:54;;;;;;;34.65;21.73;;;5.90;82.20;;;;;;6187979;23;20013;-82
2023/10/18 05:09:34;;;;;;;37.47;24.02;;;6.00;82.50;;;;;;6188519;23;20035;-82
2023/10/18 05:12:07;;;;;;;36.35;20.92;;;6.00;82.50;;;;;;6215423;23;20005;-83
2023/10/18 05:14:42;;;;;;;33.42;22.85;;;6.00;82.40;;;;;;6188266;23;20430;-83
2023/10/18 05:17:21;;;;;;;35.47;22.15;;;6.00;82.40;;;;;;6195888;23;20016;-82
2023/10/18 05:19:48;;;;;;;30.10;20.63;;;6.00;82.30;;;;;;6215424;23;20017;-83
2023/10/18 05:22:23;;;;;;;34.22;22.55;;;6.00;82.30;;;;;;6212862;23;20023;-83
2023/10/18 05:24:55;;;;;;;31.80;20.85;;;5.90;82.30;;;;;;6215117;23;20068;-82
2023/10/18 05:27:24;;;;;;;32.92;22.23;;;5.90;82.30;;;;;;6213357;23;20024;-83
2023/10/18 05:29:58;;;;;;;32.17;22.23;;;5.90;82.40;;;;;;6214953;23;20048;-82
2023/10/18 05:37:43;;;;;;;30.10;21.63;;;5.90;82.30;;;;;;6214434;23;20024;-83
2023/10/18 05:42:53;;;;;;;24.73;15.70;;;5.90;82.30;;;;;;6213248;23;20012;-83
2023/10/18 05:45:19;;;;;;;30.88;21.70;;;5.90;82.30;;;;;;6212988;23;20449;-83
2023/10/18 05:47:47;;;;;;;34.75;23.02;;;5.90;82.40;;;;;;6213246;23;20032;-84
2023/10/18 05:50:12;;;;;;;30.80;21.85;;;5.90;82.30;;;;;;6213530;23;20047;-83
2023/10/18 05:52:39;;;;;;;32.75;22.52;;;5.90;82.40;;;;;;6212876;23;20012;-82
2023/10/18 05:55:09;;;;;;;31.00;21.65;;;5.90;82.40;;;;;;6212960;23;20084;-83
2023/10/18 05:57:35;;;;;;;28.50;20.20;;;5.90;82.40;;;;;;6213025;23;20041;-83
2023/10/18 06:00:09;;;;;;;30.80;20.95;;;5.90;82.40;;;;;;6215048;23;20008;-83
2023/10/18 06:02:41;;;;;;;32.85;22.80;;;5.90;82.40;;;;;;6212776;23;20016;-83
2023/10/18 06:05:09;;;;;;;28.85;21.33;;;5.90;82.40;;;;;;6212299;23;20020;-82
2023/10/18 06:07:35;;;;;;;29.75;20.35;;;5.90;82.40;;;;;;6212764;23;20457;-83
2023/10/18 06:10:13;;;;;;;31.33;19.98;;;5.90;82.30;;;;;;6214531;23;20503;-83
2023/10/18 06:12:41;;;;;;;31.85;21.10;;;5.90;82.40;;;;;;6214841;23;20015;-83
2023/10/18 06:15:10;;;;;;;34.45;22.52;;;5.90;82.30;;;;;;6214209;23;20016;-83
2023/10/18 06:17:46;;;;;;;28.92;19.73;;;6.00;82.30;;;;;;6214173;23;20019;-83
2023/10/18 06:20:27;;;;;;;30.83;20.67;;;6.00;82.30;;;;;;6214345;23;20016;-82
2023/10/18 06:23:08;;;;;;;28.38;20.75;;;6.00;82.30;;;;;;6187817;23;20016;-83
2023/10/18 06:25:38;;;;;;;29.73;20.23;;;6.00;82.30;;;;;;6214627;23;20012;-82
2023/10/18 06:28:07;;;;;;;29.40;20.35;;;6.00;82.30;;;;;;6187877;23;20012;-83
2023/10/18 06:30:39;;;;;;;30.25;20.65;;;6.00;82.20;;;;;;6214677;23;20102;-83
2023/10/18 06:33:09;;;;;;;27.67;19.58;;;6.00;82.20;;;;;;6187652;23;20341;-83
2023/10/18 06:35:51;;;;;;;26.65;18.77;;;5.90;82.10;;;;;;6214308;23;20020;-83
2023/10/18 06:38:23;;;;;;;29.63;20.65;;;6.00;82.20;;;;;;6214205;23;20016;-83
2023/10/18 06:41:10;;;;;;;26.85;19.85;;;6.00;82.10;;;;;;6214505;23;20303;-83
2023/10/18 06:43:36;;;;;;;28.52;19.73;;;6.00;82.10;;;;;;6187040;23;20020;-82
2023/10/18 06:46:04;;;;;;;28.58;20.30;;;6.00;82.10;;;;;;6187555;23;20063;-83
2023/10/18 06:48:30;;;;;;;30.63;20.50;;;6.00;82.00;;;;;;6213826;23;20012;-83
2023/10/18 06:50:57;;;;;;;31.35;20.70;;;6.00;82.10;;;;;;6162365;23;20017;-83
2023/10/18 06:53:25;;;;;;;29.45;20.30;;;6.00;82.00;;;;;;6187038;23;20377;-83
2023/10/18 06:56:06;;;;;;;31.98;20.15;;;6.00;82.00;;;;;;6214347;23;20013;-83
2023/10/18 07:01:04;;;;;;;27.60;18.92;;;6.00;81.90;;;;;;6213976;23;20346;-84
2023/10/18 07:03:33;;;;;;;27.17;18.98;;;6.00;82.00;;;;;;6187014;23;20469;-82
2023/10/18 07:06:04;;;;;;;26.50;18.80;;;6.00;82.30;;;;;;6213571;23;20433;-82
2023/10/18 07:08:33;;;;;;;26.55;18.77;;;6.00;81.90;;;;;;6213192;23;20460;-82
2023/10/18 07:11:02;;;;;;;27.13;19.77;;;6.00;81.90;;;;;;6186765;23;20040;-82
2023/10/18 07:13:46;;;;;;;29.45;19.20;;;6.10;81.90;;;;;;6162378;23;20112;-82
2023/10/18 07:16:13;;;;;;;25.40;18.15;;;6.10;81.90;;;;;;6162268;23;20099;-82
2023/10/18 07:18:39;;;;;;;25.27;18.25;;;6.10;81.90;;;;;;6186629;23;20354;-83
2023/10/18 07:21:09;;;;;;;23.75;17.48;;;6.10;81.80;;;;;;6187415;23;20008;-83
2023/10/18 07:23:36;;;;;;;25.20;18.15;;;6.20;81.90;;;;;;6187115;23;20019;-82
2023/10/18 07:26:07;;;;;;;24.80;18.10;;;6.20;81.80;;;;;;6162016;23;20047;-83
2023/10/18 07:28:35;;;;;;;24.38;17.90;;;6.20;81.80;;;;;;6162391;23;20460;-82
2023/10/18 07:31:08;;;;;;;24.95;18.02;;;6.20;81.70;;;;;;6162264;23;20009;-82
2023/10/18 07:33:40;;;;;;;24.17;18.63;;;6.30;81.80;;;;;;6162350;23;20283;-83
2023/10/18 07:36:07;;;;;;;26.02;17.50;;;6.30;81.80;;;;;;6162159;23;20008;-83
2023/10/18 07:38:33;;;;;;;27.23;17.45;;;6.30;81.70;;;;;;6187103;23;20012;-83
2023/10/18 07:40:59;;;;;;;27.08;18.83;;;6.40;81.70;;;;;;6161866;23;20076;-82
2023/10/18 07:43:27;;;;;;;21.63;17.15;;;6.40;81.70;;;;;;6186604;23;20012;-82
2023/10/18 07:45:55;;;;;;;22.25;16.75;;;6.50;81.60;;;;;;6186621;23;20021;-83
2023/10/18 07:48:22;;;;;;;22.33;16.95;;;6.50;81.50;;;;;;6162325;23;20512;-83
2023/10/18 07:50:51;;;;;;;23.88;16.20;;;6.60;81.50;;;;;;6162332;23;20013;-83
2023/10/18 07:53:20;;;;;;;21.77;15.65;;;6.60;81.30;;;;;;6162135;23;20738;-83
2023/10/18 07:55:57;;;;;;;21.20;15.85;;;6.70;81.20;;;;;;6187155;23;20084;-83
2023/10/18 07:58:23;;;;;;;20.40;15.20;;;6.70;81.10;;;;;;6186695;23;20016;-83
2023/10/18 08:03:29;;;;;;;20.70;15.82;;;6.80;80.70;;;;;;6187366;23;20052;-88
2023/10/18 08:05:56;;;;;;;20.15;14.88;;;6.90;81.10;;;;;;6188434;23;20009;-84
2023/10/18 08:08:25;;;;;;;19.95;15.02;;;6.90;80.50;;;;;;6189024;23;20314;-83
2023/10/18 08:10:54;;;;;;;19.73;14.15;;;7.00;80.20;;;;;;6188754;23;20095;-84
2023/10/18 08:13:28;;;;;;;20.15;15.48;;;7.00;80.20;;;;;;6188818;23;20091;-84
2023/10/18 08:15:54;;;;;;;19.63;15.13;;;7.10;80.20;;;;;;6187861;23;20008;-84
2023/10/18 08:18:39;;;;;;;18.63;14.27;;;7.20;80.10;;;;;;6214929;23;20099;-84
2023/10/18 08:21:08;;;;;;;;;;;7.30;80.10;;;;;;6189415;23;20438;-83
2023/10/18 08:26:05;;;;;;;18.77;13.38;;;7.30;80.00;;;;;;6215426;23;20024;-84
2023/10/18 08:28:46;;;;;;;17.48;13.43;;;7.40;79.70;;;;;;6188768;23;20012;-85
2023/10/18 08:31:26;;;;;;;17.85;13.50;;;7.50;79.50;;;;;;6187815;23;20018;-84
2023/10/18 08:33:55;;;;;;;16.40;12.88;;;7.60;79.20;;;;;;6188948;23;20460;-84
2023/10/18 08:36:29;;;;;;;17.63;12.35;;;7.60;79.00;;;;;;6188415;23;20040;-83
2023/10/18 08:38:56;;;;;;;16.70;12.57;;;7.80;78.70;;;;;;6188688;23;20035;-85
2023/10/18 08:41:31;;;;;;;14.50;11.18;;;7.80;78.40;;;;;;6163943;23;20009;-83
2023/10/18 08:44:16;;;;;;;16.88;12.75;;;7.90;78.10;;;;;;6215003;23;20083;-83
2023/10/18 08:46:54;;;;;;;16.23;11.63;;;8.00;77.50;;;;;;6188451;23;20446;-83
2023/10/18 08:49:25;;;;;;;16.63;11.30;;;8.00;77.50;;;;;;6215285;23;20473;-84
2023/10/18 08:52:04;;;;;;;16.48;12.50;;;8.10;77.30;;;;;;6188609;23;20098;-84
2023/10/18 08:54:32;;;;;;;12.82;10.95;;;8.20;76.60;;;;;;6162425;23;20093;-85
2023/10/18 08:56:59;;;;;;;17.30;12.50;;;8.30;75.90;;;;;;6163216;23;20084;-85
2023/10/18 08:59:26;;;;;;;15.75;11.35;;;8.30;75.50;;;;;;6214329;23;20060;-85
2023/10/18 09:04:36;;;;;;;15.50;11.68;;;8.50;75.00;;;;;;6188284;23;20013;-85
2023/10/18 09:07:18;;;;;;;16.63;10.90;;;8.50;74.50;;;;;;6187999;23;20330;-84
2023/10/18 09:09:57;;;;;;;15.30;11.43;;;8.60;74.30;;;;;;6187854;23;20721;-84
2023/10/18 09:18:02;;;;;;;16.70;11.88;;;8.70;74.10;;;;;;6205540;23;20017;-84
2023/10/18 09:20:29;;;;;;;13.30;10.27;;;8.80;74.10;;;;;;6188650;23;20015;-84
2023/10/18 09:23:01;;;;;;;14.95;10.95;;;8.90;73.50;;;;;;6213099;23;20009;-83
2023/10/18 09:28:11;;;;;;;16.10;10.15;;;9.00;72.70;;;;;;6212821;23;20055;-84
2023/10/18 09:30:37;;;;;;;13.50;9.65;;;9.10;72.70;;;;;;6212987;23;20017;-84
2023/10/18 09:33:04;;;;;;;10.77;9.27;;;9.10;72.10;;;;;;6213092;23;20106;-85
2023/10/18 09:35:30;;;;;;;12.48;9.98;;;9.20;71.80;;;;;;6212938;23;20017;-84
2023/10/18 09:38:08;;;;;;;10.40;8.95;;;9.20;72.00;;;;;;6213194;23;20013;-84
2023/10/18 09:40:37;;;;;;;14.57;10.02;;;9.30;71.90;;;;;;6212938;23;20012;-84
2023/10/18 09:43:03;;;;;;;11.73;9.38;;;9.30;71.90;;;;;;6212470;23;20087;-84
2023/10/18 09:45:28;;;;;;;11.73;9.38;;;9.40;71.80;;;;;;6212857;23;20468;-84
2023/10/18 09:47:59;;;;;;;12.35;9.43;;;9.50;71.30;;;;;;6212842;23;20017;-84
2023/10/18 09:50:31;;;;;;;12.60;8.85;;;9.50;70.70;;;;;;6213192;23;20017;-84
2023/10/18 09:52:57;;;;;;;11.15;8.77;;;9.60;70.20;;;;;;6212747;23;20013;-85
2023/10/18 09:55:27;;;;;;;12.77;9.10;;;9.60;70.30;;;;;;6187206;23;20017;-84
2023/10/18 09:57:59;;;;;;;14.38;10.25;;;9.60;70.20;;;;;;6213462;23;20021;-84
2023/10/18 10:00:29;;;;;;;9.95;8.10;;;9.70;69.50;;;;;;6212491;23;20016;-84
2023/10/18 10:02:56;;;;;;;11.98;9.20;;;9.70;69.20;;;;;;6212645;23;20043;-84
2023/10/18 10:05:25;;;;;;;10.45;9.02;;;9.70;69.20;;;;;;6212513;23;20019;-84
2023/10/18 10:08:06;;;;;;;11.10;8.88;;;9.80;69.60;;;;;;6212570;23;20384;-84
2023/10/18 10:10:45;;;;;;;10.00;8.50;;;9.80;69.70;;;;;;6212473;23;20426;-85
2023/10/18 10:13:19;;;;;;;11.13;8.65;;;9.80;69.10;;;;;;6212507;23;20017;-84
2023/10/18 10:16:08;;;;;;;10.45;8.95;;;9.90;69.00;;;;;;6212295;23;20345;-84
2023/10/18 10:18:39;;;;;;;11.88;8.77;;;10.00;69.40;;;;;;6212474;23;20031;-84
2023/10/18 10:21:08;;;;;;;11.38;8.27;;;10.00;69.50;;;;;;6212571;23;20119;-84
2023/10/18 10:23:35;;;;;;;12.70;9.27;;;10.10;69.10;;;;;;6211733;23;20047;-86
2023/10/18 10:26:11;;;;;;;11.55;8.98;;;10.20;69.20;;;;;;6212031;23;20063;-85
2023/10/18 10:29:10;;;;;;;10.73;9.23;;;10.20;69.10;;;;;;6212329;23;20024;-85
2023/10/18 10:32:06;;;;;;;11.85;8.60;;;10.20;68.30;;;;;;6213781;23;20009;-84
2023/10/18 10:34:41;;;;;;;10.73;8.27;;;10.30;67.90;;;;;;6214224;23;20019;-84
2023/10/18 10:37:23;;;;;;;10.23;7.72;;;10.40;67.90;;;;;;6212231;23;20115;-84
2023/10/18 10:39:49;;;;;;;8.90;7.60;;;10.40;67.70;;;;;;6212081;23;20009;-84
2023/10/18 10:42:41;;;;;;;11.48;8.15;;;10.40;66.70;;;;;;6212751;23;20435;-85
2023/10/18 10:47:46;;;;;;;12.48;8.75;;;10.50;66.30;;;;;;6213568;23;20040;-84
2023/10/18 10:50:53;;;;;;;9.70;7.40;;;10.50;65.50;;;;;;6211834;23;20663;-85
2023/10/18 10:53:43;;;;;;;10.77;8.73;;;10.60;65.10;;;;;;6211898;23;20337;-84
2023/10/18 10:56:19;;;;;;;11.00;8.43;;;10.60;65.10;;;;;;6210863;23;20012;-85
2023/10/18 11:01:39;;;;;;;10.48;8.10;;;10.70;65.20;;;;;;6213866;23;20013;-83
2023/10/18 11:04:27;;;;;;;10.05;7.43;;;10.70;64.80;;;;;;6214045;23;20016;-86
2023/10/18 11:06:56;;;;;;;8.73;7.30;;;10.80;63.80;;;;;;6211714;23;20078;-84
2023/10/18 11:09:38;;;;;;;10.63;8.10;;;10.70;63.90;;;;;;6186479;23;20020;-83
2023/10/18 11:12:07;;;;;;;9.80;7.15;;;10.80;64.10;;;;;;6211774;23;20004;-84
2023/10/18 11:14:37;;;;;;;12.10;8.10;;;10.80;64.10;;;;;;6212160;23;20005;-85
2023/10/18 11:17:17;;;;;;;10.77;7.65;;;10.90;63.30;;;;;;6211520;23;20342;-84
2023/10/18 11:19:43;;;;;;;10.15;8.20;;;10.90;63.40;;;;;;6187436;23;20017;-84
2023/10/18 11:22:19;;;;;;;11.93;8.18;;;11.20;64.40;;;;;;6212130;23;20334;-84
2023/10/18 11:24:50;;;;;;;9.70;8.10;;;10.90;63.40;;;;;;6185885;23;20016;-85
2023/10/18 11:27:18;;;;;;;10.43;7.70;;;11.00;63.90;;;;;;6211650;23;20453;-84
2023/10/18 11:29:45;;;;;;;10.38;7.75;;;11.00;63.90;;;;;;6212069;23;20029;-85
2023/10/18 11:32:20;;;;;;;10.55;7.53;;;10.90;63.30;;;;;;6213350;23;20012;-84
2023/10/18 11:34:45;;;;;;;11.50;8.52;;;11.00;63.60;;;;;;6213789;23;20015;-84
2023/10/18 11:37:34;;;;;;;10.98;8.15;;;11.00;63.70;;;;;;6213642;23;20333;-84
2023/10/18 11:39:58;;;;;;;11.27;8.15;;;11.00;63.40;;;;;;6212405;23;20025;-84
2023/10/18 11:42:23;;;;;;;10.65;8.10;;;11.00;63.10;;;;;;6211760;23;20740;-83
2023/10/18 11:44:52;;;;;;;10.43;8.13;;;11.00;63.80;;;;;;6211605;23;20338;-83
2023/10/18 11:47:21;;;;;;;11.00;8.65;;;11.10;64.10;;;;;;6211420;23;20023;-83
2023/10/18 11:49:54;;;;;;;10.80;8.52;;;11.10;64.10;;;;;;6213573;23;20008;-83
2023/10/18 11:52:25;;;;;;;11.32;7.85;;;11.10;64.10;;;;;;6210440;23;20522;-84
2023/10/18 11:54:54;;;;;;;10.38;8.45;;;11.20;64.60;;;;;;6213347;23;20009;-84
2023/10/18 11:57:25;;;;;;;9.88;8.02;;;11.20;64.50;;;;;;6213525;23;20035;-83
2023/10/18 11:59:53;;;;;;;9.73;7.88;;;11.30;63.70;;;;;;6213400;23;20009;-84
2023/10/18 12:02:19;;;;;;;10.13;8.25;;;11.30;64.10;;;;;;6212821;23;20020;-83
2023/10/18 12:04:48;;;;;;;10.63;7.90;;;11.30;63.80;;;;;;6213319;23;20338;-83
2023/10/18 12:07:14;;;;;;;9.98;7.53;;;11.30;64.10;;;;;;6212758;23;20025;-85
2023/10/18 12:09:43;;;;;;;8.63;7.00;;;11.40;63.70;;;;;;6212424;23;20449;-84
2023/10/18 12:12:12;;;;;;;9.15;7.43;;;11.40;63.40;;;;;;6213371;23;20013;-84
2023/10/18 12:14:41;;;;;;;12.10;8.27;;;11.40;62.70;;;;;;6211401;23;20016;-84
2023/10/18 12:17:07;;;;;;;11.27;8.32;;;11.50;62.90;;;;;;6211169;23;20095;-86
2023/10/18 12:19:34;;;;;;;10.35;8.32;;;11.50;62.60;;;;;;6213454;23;20013;-85
2023/10/18 12:22:01;;;;;;;10.45;7.82;;;11.50;62.20;;;;;;6210629;23;20112;-83
2023/10/18 12:24:33;;;;;;;10.20;8.18;;;11.60;62.60;;;;;;6212511;23;20043;-84
2023/10/18 12:27:07;;;;;;;10.52;8.02;;;11.60;62.80;;;;;;6211223;23;20023;-84
2023/10/18 12:29:32;;;;;;;9.95;8.02;;;11.60;62.80;;;;;;6213811;23;20031;-84
2023/10/18 12:32:18;;;;;;;10.52;7.93;;;11.70;62.70;;;;;;6186394;23;20430;-84
2023/10/18 12:34:48;;;;;;;10.43;7.93;;;11.70;62.80;;;;;;6211465;23;20096;-85
2023/10/18 12:37:15;;;;;;;10.63;7.72;;;11.70;62.30;;;;;;6185791;23;20009;-85
2023/10/18 12:39:46;;;;;;;11.32;8.02;;;11.80;62.20;;;;;;6211539;23;20013;-86
2023/10/18 12:42:13;;;;;;;9.15;7.50;;;11.80;61.50;;;;;;6211310;23;20024;-84
2023/10/18 12:44:39;;;;;;;10.75;7.68;;;11.80;61.80;;;;;;6186424;23;20015;-86
2023/10/18 12:47:09;;;;;;;10.40;7.47;;;11.90;62.20;;;;;;6212916;23;20040;-85
2023/10/18 12:49:37;;;;;;;9.85;7.63;;;11.90;61.40;;;;;;6213041;23;20017;-84
2023/10/18 12:52:04;;;;;;;9.35;7.35;;;11.90;61.30;;;;;;6211823;23;20144;-85
2023/10/18 12:54:33;;;;;;;9.27;7.80;;;11.90;61.30;;;;;;6212877;23;20016;-85
2023/10/18 12:57:10;;;;;;;9.32;7.30;;;11.90;61.20;;;;;;6215083;23;20027;-85
2023/10/18 12:59:59;;;;;;;9.77;6.93;;;12.00;60.40;;;;;;6215208;23;20008;-84
2023/10/18 13:02:49;;;;;;;10.77;7.57;;;11.90;60.10;;;;;;6213520;23;20023;-85
2023/10/18 13:05:15;;;;;;;10.85;7.53;;;11.90;60.10;;;;;;6212479;23;20005;-85
2023/10/18 13:07:43;;;;;;;9.65;7.75;;;11.90;60.00;;;;;;6213691;23;20009;-85
2023/10/18 13:10:14;;;;;;;9.15;6.53;;;11.90;60.40;;;;;;6214904;23;20059;-85
2023/10/18 13:13:04;;;;;;;8.60;6.90;;;11.90;60.40;;;;;;6213095;23;20012;-85
2023/10/18 13:15:26;;;;;;;7.60;6.80;;;11.90;60.90;;;;;;6212244;23;20028;-84
2023/10/18 13:17:52;;;;;;;12.77;9.43;;;11.90;60.60;;;;;;6213017;23;20020;-84
2023/10/18 13:20:24;;;;;;;9.25;7.53;;;11.90;60.60;;;;;;6213982;23;20008;-84
2023/10/18 13:22:59;;;;;;;8.48;6.95;;;11.90;61.30;;;;;;6213243;23;20456;-84
2023/10/18 13:25:25;;;;;;;10.10;7.15;;;11.90;61.40;;;;;;6214797;23;20013;-84
2023/10/18 13:27:54;;;;;;;11.10;7.50;;;11.90;60.70;;;;;;6213247;23;20009;-85
2023/10/18 13:30:32;;;;;;;9.18;7.10;;;11.90;60.60;;;;;;6212451;23;20012;-87
2023/10/18 13:33:01;;;;;;;9.98;6.95;;;11.90;60.70;;;;;;6213139;23;20027;-85
2023/10/18 13:35:34;;;;;;;10.23;7.35;;;11.90;61.10;;;;;;6186969;23;20031;-86
2023/10/18 13:38:00;;;;;;;9.43;7.38;;;11.90;60.60;;;;;;6213050;23;20048;-83